createdAt,value
2024-03-03T00:00:53.120Z,10.59
2024-03-03T00:03:44.086Z,10.58
2024-03-03T00:06:13.432Z,10.56
2024-03-03T00:08:44.229Z,10.55
2024-03-03T00:11:15.050Z,10.54
2024-03-03T00:13:46.114Z,10.53
2024-03-03T00:16:15.503Z,10.54
2024-03-03T00:18:46.859Z,10.53
2024-03-03T00:21:17.958Z,10.54
2024-03-03T00:23:47.263Z,10.56
2024-03-03T00:26:18.254Z,10.54
2024-03-03T00:28:47.529Z,10.54
2024-03-03T00:31:18.412Z,10.53
2024-03-03T00:33:49.195Z,10.49
2024-03-03T00:36:20.411Z,10.47
2024-03-03T00:38:51.397Z,10.46
2024-03-03T00:41:20.542Z,10.45
2024-03-03T00:43:51.504Z,10.45
2024-03-03T00:46:20.668Z,10.49
2024-03-03T00:48:51.583Z,10.47
2024-03-03T00:51:22.660Z,10.42
2024-03-03T00:53:53.612Z,10.38
2024-03-03T00:56:22.994Z,10.35
2024-03-03T00:58:54.061Z,10.32
2024-03-03T01:01:25.194Z,10.32
2024-03-03T01:03:56.419Z,10.31
2024-03-03T01:06:27.541Z,10.28
2024-03-03T01:08:56.829Z,10.25
2024-03-03T01:11:27.669Z,10.23
2024-03-03T01:13:58.696Z,10.23
2024-03-03T01:16:29.508Z,10.23
2024-03-03T01:19:00.433Z,10.25
2024-03-03T01:21:29.691Z,10.26
2024-03-03T01:24:00.645Z,10.22
2024-03-03T01:26:29.857Z,10.17
2024-03-03T01:29:00.798Z,10.14
2024-03-03T01:31:31.581Z,10.11
2024-03-03T01:34:02.674Z,10.08
2024-03-03T01:36:33.477Z,10.09
2024-03-03T01:39:04.539Z,10.13
2024-03-03T01:41:35.593Z,10.15
2024-03-03T01:44:06.718Z,10.13
2024-03-03T01:46:38.348Z,10.09
2024-03-03T01:49:13.746Z,10.06
2024-03-03T01:51:45.914Z,10.05
2024-03-03T01:54:17.439Z,10.04
2024-03-03T01:56:50.186Z,10.00
2024-03-03T01:59:21.785Z,9.99
2024-03-03T02:01:53.238Z,9.97
2024-03-03T02:04:25.017Z,9.93
2024-03-03T02:06:58.302Z,9.90
2024-03-03T02:09:29.662Z,9.93
2024-03-03T02:12:00.695Z,9.93
2024-03-03T02:14:32.248Z,9.87
2024-03-03T02:17:03.488Z,9.78
2024-03-03T02:19:37.571Z,9.78
2024-03-03T02:22:08.626Z,9.80
2024-03-03T02:24:37.969Z,9.79
2024-03-03T02:27:09.676Z,9.76
2024-03-03T02:29:41.111Z,9.79
2024-03-03T02:32:12.077Z,9.81
2024-03-03T02:34:41.321Z,9.82
2024-03-03T02:37:12.378Z,9.84
2024-03-03T02:39:42.028Z,9.87
2024-03-03T02:42:13.148Z,9.86
2024-03-03T02:44:43.988Z,9.84
2024-03-03T02:47:15.016Z,9.81
2024-03-03T02:49:44.334Z,9.79
2024-03-03T02:52:15.472Z,9.77
2024-03-03T02:54:46.547Z,9.76
2024-03-03T02:57:15.848Z,9.82
2024-03-03T02:59:46.807Z,9.79
2024-03-03T03:02:17.720Z,9.76
2024-03-03T03:04:46.993Z,9.78
2024-03-03T03:07:17.823Z,9.81
2024-03-03T03:09:49.027Z,9.83
2024-03-03T03:12:20.061Z,9.82
2024-03-03T03:14:49.321Z,9.82
2024-03-03T03:17:20.210Z,9.78
2024-03-03T03:19:51.120Z,9.73
2024-03-03T03:22:20.351Z,9.72
2024-03-03T03:24:51.274Z,9.67
2024-03-03T03:27:20.615Z,9.64
2024-03-03T03:29:51.576Z,9.62
2024-03-03T03:32:20.998Z,9.60
2024-03-03T03:34:51.930Z,9.59
2024-03-03T03:37:23.172Z,9.57
2024-03-03T03:39:54.264Z,9.49
2024-03-03T03:42:23.465Z,9.45
2024-03-03T03:44:54.412Z,9.44
2024-03-03T03:47:25.349Z,9.41
2024-03-03T03:49:54.748Z,9.40
2024-03-03T03:52:25.573Z,9.36
2024-03-03T03:54:56.716Z,9.30
2024-03-03T03:57:27.733Z,9.29
2024-03-03T03:59:58.701Z,9.26
2024-03-03T04:02:30.325Z,9.26
2024-03-03T04:05:01.267Z,9.27
2024-03-03T04:07:30.609Z,9.24
2024-03-03T04:10:01.906Z,9.19
2024-03-03T04:12:32.997Z,9.15
2024-03-03T04:15:02.347Z,9.12
2024-03-03T04:17:33.407Z,9.09
2024-03-03T04:20:02.689Z,9.05
2024-03-03T04:22:33.523Z,9.06
2024-03-03T04:25:05.561Z,9.05
2024-03-03T04:27:36.461Z,9.01
2024-03-03T04:30:09.247Z,9.03
2024-03-03T04:32:40.040Z,9.00
2024-03-03T04:35:11.400Z,8.94
2024-03-03T04:37:42.493Z,8.88
2024-03-03T04:40:12.369Z,8.84
2024-03-03T04:42:43.321Z,8.78
2024-03-03T04:45:12.739Z,8.71
2024-03-03T04:47:43.654Z,8.69
2024-03-03T04:50:14.904Z,8.66
2024-03-03T04:52:45.755Z,8.61
2024-03-03T04:55:23.558Z,8.58
2024-03-03T04:57:54.531Z,8.54
2024-03-03T05:00:23.967Z,8.52
2024-03-03T05:02:55.070Z,8.54
2024-03-03T05:05:24.398Z,8.51
2024-03-03T05:07:55.332Z,8.44
2024-03-03T05:10:26.256Z,8.39
2024-03-03T05:12:57.249Z,8.37
2024-03-03T05:15:26.540Z,8.35
2024-03-03T05:17:57.411Z,8.29
2024-03-03T05:20:28.320Z,8.26
2024-03-03T05:22:59.262Z,8.20
2024-03-03T05:25:30.459Z,8.20
2024-03-03T05:28:01.313Z,8.19
2024-03-03T05:30:32.130Z,8.18
2024-03-03T05:33:03.267Z,8.14
2024-03-03T05:35:34.518Z,8.10
2024-03-03T05:38:05.818Z,8.06
2024-03-03T05:40:36.714Z,8.04
2024-03-03T05:43:09.448Z,8.01
2024-03-03T05:45:40.659Z,7.94
2024-03-03T05:48:11.808Z,7.89
2024-03-03T05:50:41.039Z,7.83
2024-03-03T05:53:12.150Z,7.82
2024-03-03T05:55:41.575Z,7.81
2024-03-03T05:58:12.698Z,7.80
2024-03-03T06:00:43.745Z,7.80
2024-03-03T06:03:14.780Z,7.81
2024-03-03T06:05:45.692Z,7.79
2024-03-03T06:08:16.750Z,7.79
2024-03-03T06:10:45.992Z,7.81
2024-03-03T06:13:17.020Z,7.87
2024-03-03T06:15:46.774Z,7.89
2024-03-03T06:18:17.946Z,7.88
2024-03-03T06:20:48.871Z,7.86
2024-03-03T06:23:19.972Z,7.88
2024-03-03T06:25:49.133Z,7.96
2024-03-03T06:28:20.254Z,8.01
2024-03-03T06:30:51.415Z,8.02
2024-03-03T06:33:22.481Z,8.07
2024-03-03T06:35:51.665Z,8.09
2024-03-03T06:38:22.773Z,8.16
2024-03-03T06:40:52.123Z,8.22
2024-03-03T06:43:23.027Z,8.20
2024-03-03T06:45:54.245Z,8.22
2024-03-03T06:48:25.206Z,8.27
2024-03-03T06:50:57.912Z,8.23
2024-03-03T06:53:30.286Z,8.21
2024-03-03T06:55:59.644Z,8.20
2024-03-03T06:58:30.715Z,8.22
2024-03-03T07:01:01.529Z,8.26
2024-03-03T07:03:32.520Z,8.33
2024-03-03T07:06:01.791Z,8.32
2024-03-03T07:08:32.729Z,8.31
2024-03-03T07:11:03.741Z,8.32
2024-03-03T07:13:33.152Z,8.39
2024-03-03T07:16:04.217Z,8.42
2024-03-03T07:18:33.602Z,8.42
2024-03-03T07:21:04.912Z,8.48
2024-03-03T07:23:35.938Z,8.55
2024-03-03T07:26:07.265Z,8.61
2024-03-03T07:28:38.324Z,8.74
2024-03-03T07:31:07.559Z,8.86
2024-03-03T07:33:39.536Z,8.96
2024-03-03T07:36:10.462Z,9.02
2024-03-03T07:38:41.613Z,9.10
2024-03-03T07:41:12.594Z,9.22
2024-03-03T07:43:42.105Z,9.38
2024-03-03T07:46:13.502Z,9.50
2024-03-03T07:48:45.127Z,9.54
2024-03-03T07:51:15.986Z,9.57
2024-03-03T07:53:47.077Z,9.62
2024-03-03T07:56:20.074Z,9.75
2024-03-03T07:58:51.124Z,9.84
2024-03-03T08:01:20.669Z,9.96
2024-03-03T08:03:51.614Z,10.17
2024-03-03T08:06:28.087Z,10.39
2024-03-03T08:09:01.473Z,10.60
2024-03-03T08:11:30.787Z,10.76
2024-03-03T08:14:02.030Z,10.91
2024-03-03T08:16:33.550Z,10.95
2024-03-03T08:19:14.592Z,10.99
2024-03-03T08:21:43.991Z,11.09
2024-03-03T08:24:15.319Z,11.10
2024-03-03T08:26:50.916Z,11.22
2024-03-03T08:29:21.866Z,11.35
2024-03-03T08:31:51.064Z,11.37
2024-03-03T08:34:22.100Z,11.45
2024-03-03T08:36:52.949Z,11.57
2024-03-03T08:39:23.806Z,11.78
2024-03-03T08:41:53.217Z,12.08
2024-03-03T08:44:24.390Z,12.19
2024-03-03T08:46:55.315Z,12.21
2024-03-03T08:49:24.680Z,12.25
2024-03-03T08:52:08.979Z,12.33
2024-03-03T08:54:40.266Z,12.41
2024-03-03T08:57:11.658Z,12.55
2024-03-03T08:59:42.568Z,12.66
2024-03-03T09:02:13.650Z,12.75
2024-03-03T09:04:44.723Z,12.84
2024-03-03T09:07:15.865Z,12.97
2024-03-03T09:09:51.197Z,13.02
2024-03-03T09:12:23.598Z,12.98
2024-03-03T09:14:54.618Z,12.95
2024-03-03T09:17:27.293Z,12.95
2024-03-03T09:19:56.959Z,12.79
2024-03-03T09:22:28.165Z,12.80
2024-03-03T09:24:59.005Z,12.86
2024-03-03T09:27:29.844Z,12.91
2024-03-03T09:30:01.075Z,12.93
2024-03-03T09:32:32.111Z,13.01
2024-03-03T09:35:01.486Z,13.02
2024-03-03T09:37:32.403Z,13.09
2024-03-03T09:40:01.760Z,13.15
2024-03-03T09:42:33.396Z,13.11
2024-03-03T09:45:10.386Z,13.09
2024-03-03T09:47:42.349Z,13.17
2024-03-03T09:50:15.097Z,13.36
2024-03-03T09:52:47.791Z,13.55
2024-03-03T09:55:27.712Z,13.49
2024-03-03T09:58:05.284Z,13.47
2024-03-03T10:00:36.520Z,13.61
2024-03-03T10:03:08.975Z,13.72
2024-03-03T10:05:41.909Z,13.69
2024-03-03T10:08:16.860Z,13.74
2024-03-03T10:10:51.332Z,13.75
2024-03-03T10:13:23.444Z,13.87
2024-03-03T10:15:57.313Z,13.82
2024-03-03T10:18:28.143Z,13.83
2024-03-03T10:20:57.659Z,13.96
2024-03-03T10:23:28.694Z,14.04
2024-03-03T10:25:58.209Z,14.04
2024-03-03T10:28:29.184Z,14.09
2024-03-03T10:31:14.944Z,14.08
2024-03-03T10:33:56.072Z,14.16
2024-03-03T10:36:27.415Z,14.33
2024-03-03T10:38:58.419Z,14.46
2024-03-03T10:41:29.353Z,14.53
2024-03-03T10:43:58.546Z,14.51
2024-03-03T10:46:29.821Z,14.58
2024-03-03T10:49:02.274Z,14.77
2024-03-03T10:51:33.404Z,14.87
2024-03-03T10:54:05.398Z,14.88
2024-03-03T10:56:37.224Z,14.94
2024-03-03T10:59:11.087Z,15.08
2024-03-03T11:01:42.799Z,15.05
2024-03-03T11:04:15.936Z,14.94
2024-03-03T11:06:48.760Z,14.81
2024-03-03T11:09:20.441Z,14.78
2024-03-03T11:11:55.829Z,14.79
2024-03-03T11:14:29.348Z,14.80
2024-03-03T11:17:03.660Z,14.91
2024-03-03T11:19:42.032Z,14.86
2024-03-03T11:22:17.968Z,14.95
2024-03-03T11:24:57.638Z,15.05
2024-03-03T11:27:29.438Z,14.98
2024-03-03T11:30:01.093Z,14.89
2024-03-03T11:32:33.631Z,14.87
2024-03-03T11:35:06.378Z,15.02
2024-03-03T11:37:37.617Z,15.19
2024-03-03T11:40:20.013Z,15.37
2024-03-03T11:42:51.762Z,15.58
2024-03-03T11:45:41.784Z,15.71
2024-03-03T11:48:15.217Z,15.69
2024-03-03T11:50:46.297Z,15.69
2024-03-03T11:53:23.533Z,15.79
2024-03-03T11:55:57.288Z,15.82
2024-03-03T11:58:30.926Z,15.93
2024-03-03T12:01:12.180Z,15.89
2024-03-03T12:03:43.645Z,15.75
2024-03-03T12:06:19.514Z,15.67
2024-03-03T12:08:57.214Z,15.64
2024-03-03T12:11:28.836Z,15.58
2024-03-03T12:14:00.667Z,15.48
2024-03-03T12:16:32.536Z,15.46
2024-03-03T12:19:03.530Z,15.36
2024-03-03T12:21:34.642Z,15.22
2024-03-03T12:24:07.749Z,15.24
2024-03-03T12:26:39.422Z,15.33
2024-03-03T12:29:10.750Z,15.51
2024-03-03T12:31:41.496Z,15.61
2024-03-03T12:34:12.339Z,15.50
2024-03-03T12:36:43.351Z,15.33
2024-03-03T12:39:14.809Z,15.29
2024-03-03T12:41:48.750Z,15.24
2024-03-03T12:44:19.664Z,15.23
2024-03-03T12:46:52.036Z,15.30
2024-03-03T12:49:23.324Z,15.19
2024-03-03T12:51:54.865Z,15.21
2024-03-03T12:54:25.766Z,15.16
2024-03-03T12:56:55.826Z,15.16
2024-03-03T12:59:26.730Z,15.23
2024-03-03T13:01:56.049Z,15.24
2024-03-03T13:04:30.684Z,15.12
2024-03-03T13:07:03.778Z,15.08
2024-03-03T13:09:36.277Z,15.09
2024-03-03T13:12:08.655Z,15.14
2024-03-03T13:14:39.653Z,15.22
2024-03-03T13:17:12.913Z,15.27
2024-03-03T13:19:52.498Z,15.32
2024-03-03T13:22:24.037Z,15.36
2024-03-03T13:24:56.914Z,15.36
2024-03-03T13:27:29.062Z,15.36
2024-03-03T13:30:00.449Z,15.42
2024-03-03T13:32:31.437Z,15.49
2024-03-03T13:35:00.658Z,15.55
2024-03-03T13:37:31.798Z,15.59
2024-03-03T13:40:02.842Z,15.70
2024-03-03T13:42:34.245Z,15.79
2024-03-03T13:45:10.287Z,15.82
2024-03-03T13:47:42.407Z,15.88
2024-03-03T13:50:13.585Z,15.91
2024-03-03T13:52:44.460Z,15.82
2024-03-03T13:55:20.274Z,15.76
2024-03-03T13:57:51.298Z,15.68
2024-03-03T14:00:24.399Z,15.61
2024-03-03T14:02:55.290Z,15.56
2024-03-03T14:05:24.681Z,15.51
2024-03-03T14:07:58.594Z,15.43
2024-03-03T14:10:29.887Z,15.36
2024-03-03T14:13:04.437Z,15.28
2024-03-03T14:15:37.265Z,15.24
2024-03-03T14:18:08.619Z,15.23
2024-03-03T14:20:39.728Z,15.20
2024-03-03T14:23:10.606Z,15.22
2024-03-03T14:25:40.033Z,15.23
2024-03-03T14:28:13.678Z,15.23
2024-03-03T14:30:45.171Z,15.20
2024-03-03T14:33:16.234Z,15.17
2024-03-03T14:35:47.231Z,15.10
2024-03-03T14:38:16.482Z,15.05
2024-03-03T14:40:47.617Z,15.01
2024-03-03T14:43:18.627Z,15.00
2024-03-03T14:45:47.918Z,14.96
2024-03-03T14:48:19.470Z,14.89
2024-03-03T14:50:50.845Z,14.80
2024-03-03T14:53:21.950Z,14.72
2024-03-03T14:55:52.952Z,14.66
2024-03-03T14:58:23.990Z,14.64
2024-03-03T15:00:55.547Z,14.65
2024-03-03T15:03:26.987Z,14.65
2024-03-03T15:05:58.130Z,14.63
2024-03-03T15:08:29.137Z,14.66
2024-03-03T15:10:58.527Z,14.67
2024-03-03T15:13:29.512Z,14.65
2024-03-03T15:16:00.542Z,14.60
2024-03-03T15:18:31.593Z,14.51
2024-03-03T15:21:00.829Z,14.44
2024-03-03T15:23:32.229Z,14.38
2024-03-03T15:26:03.380Z,14.36
2024-03-03T15:28:34.362Z,14.36
2024-03-03T15:31:03.776Z,14.38
2024-03-03T15:33:37.161Z,14.37
2024-03-03T15:36:11.359Z,14.33
2024-03-03T15:38:42.263Z,14.29
2024-03-03T15:41:11.663Z,14.28
2024-03-03T15:43:42.591Z,14.25
2024-03-03T15:46:11.988Z,14.22
2024-03-03T15:48:42.910Z,14.18
2024-03-03T15:51:12.134Z,14.15
2024-03-03T15:53:43.128Z,14.12
2024-03-03T15:56:12.743Z,14.10
2024-03-03T15:58:43.714Z,14.06
2024-03-03T16:01:13.247Z,14.04
2024-03-03T16:03:44.502Z,14.01
2024-03-03T16:06:15.587Z,13.97
2024-03-03T16:08:46.481Z,13.94
2024-03-03T16:11:15.800Z,13.92
2024-03-03T16:13:46.766Z,13.89
2024-03-03T16:16:16.050Z,13.86
2024-03-03T16:18:47.171Z,13.82
2024-03-03T16:21:18.106Z,13.79
2024-03-03T16:23:49.644Z,13.77
2024-03-03T16:26:20.679Z,13.74
2024-03-03T16:29:05.634Z,13.72
2024-03-03T16:31:34.974Z,13.72
2024-03-03T16:34:06.384Z,13.69
2024-03-03T16:36:51.402Z,13.64
2024-03-03T16:39:22.422Z,13.62
2024-03-03T16:41:51.649Z,13.59
2024-03-03T16:44:25.050Z,13.56
2024-03-03T16:46:54.466Z,13.54
2024-03-03T16:49:25.491Z,13.50
2024-03-03T16:51:58.991Z,13.47
2024-03-03T16:54:30.421Z,13.44
2024-03-03T16:57:01.548Z,13.43
2024-03-03T16:59:32.506Z,13.41
2024-03-03T17:02:03.591Z,13.38
2024-03-03T17:04:34.796Z,13.36
2024-03-03T17:07:06.218Z,13.37
2024-03-03T17:09:38.753Z,13.36
2024-03-03T17:12:10.400Z,13.36
2024-03-03T17:14:41.545Z,13.36
2024-03-03T17:17:12.500Z,13.36
2024-03-03T17:19:41.910Z,13.35
2024-03-03T17:22:12.978Z,13.32
2024-03-03T17:24:43.911Z,13.31
2024-03-03T17:27:15.247Z,13.27
2024-03-03T17:29:48.234Z,13.24
2024-03-03T17:32:19.550Z,13.23
2024-03-03T17:34:50.573Z,13.21
2024-03-03T17:37:19.931Z,13.19
2024-03-03T17:39:54.048Z,13.16
2024-03-03T17:42:25.088Z,13.14
2024-03-03T17:44:54.332Z,13.13
2024-03-03T17:47:25.605Z,13.10
2024-03-03T17:49:55.048Z,13.08
2024-03-03T17:52:26.074Z,13.04
2024-03-03T17:54:55.745Z,13.04
2024-03-03T17:57:26.746Z,13.03
2024-03-03T17:59:55.935Z,13.04
2024-03-03T18:02:26.988Z,13.03
2024-03-03T18:04:56.161Z,13.02
2024-03-03T18:07:27.211Z,13.01
2024-03-03T18:09:58.300Z,12.98
2024-03-03T18:12:29.369Z,12.98
2024-03-03T18:15:00.647Z,12.94
2024-03-03T18:17:31.630Z,12.89
2024-03-03T18:20:00.934Z,12.85
2024-03-03T18:22:32.019Z,12.80
2024-03-03T18:25:03.192Z,12.78
2024-03-03T18:27:34.219Z,12.76
2024-03-03T18:30:08.296Z,12.72
2024-03-03T18:32:39.214Z,12.69
2024-03-03T18:35:12.589Z,12.68
2024-03-03T18:37:43.501Z,12.65
2024-03-03T18:40:13.287Z,12.62
2024-03-03T18:42:44.448Z,12.58
2024-03-03T18:45:17.649Z,12.56
2024-03-03T18:47:48.646Z,12.53
2024-03-03T18:50:18.028Z,12.51
2024-03-03T18:52:49.319Z,12.47
2024-03-03T18:55:20.620Z,12.44
2024-03-03T18:57:51.771Z,12.41
2024-03-03T19:00:24.559Z,12.42
2024-03-03T19:02:55.408Z,12.42
2024-03-03T19:05:26.730Z,12.40
2024-03-03T19:07:57.575Z,12.36
2024-03-03T19:10:30.589Z,12.31
2024-03-03T19:13:02.024Z,12.26
2024-03-03T19:15:33.049Z,12.25
2024-03-03T19:18:02.324Z,12.23
2024-03-03T19:20:33.230Z,12.19
2024-03-03T19:23:04.538Z,12.16
2024-03-03T19:25:37.814Z,12.15
2024-03-03T19:28:09.045Z,12.13
2024-03-03T19:30:39.971Z,12.10
2024-03-03T19:33:11.423Z,12.06
2024-03-03T19:35:42.372Z,12.03
2024-03-03T19:38:11.712Z,11.97
2024-03-03T19:40:43.796Z,11.94
2024-03-03T19:43:15.116Z,11.92
2024-03-03T19:46:14.477Z,11.89
2024-03-03T19:48:38.440Z,11.89
2024-03-03T19:51:09.196Z,11.86
2024-03-03T19:53:40.416Z,11.85
2024-03-03T19:56:11.381Z,11.79
2024-03-03T19:58:40.739Z,11.79
2024-03-03T20:01:12.580Z,11.79
2024-03-03T20:03:43.792Z,11.79
2024-03-03T20:06:13.114Z,11.77
2024-03-03T20:08:44.382Z,11.74
2024-03-03T20:11:13.755Z,11.69
2024-03-03T20:13:47.561Z,11.65
2024-03-03T20:16:20.238Z,11.65
2024-03-03T20:18:51.176Z,11.65
2024-03-03T20:21:21.427Z,11.62
2024-03-03T20:23:54.388Z,11.61
2024-03-03T20:26:25.568Z,11.60
2024-03-03T20:28:56.529Z,11.62
2024-03-03T20:31:27.853Z,11.62
2024-03-03T20:33:58.776Z,11.59
2024-03-03T20:36:30.173Z,11.54
2024-03-03T20:39:01.190Z,11.49
2024-03-03T20:41:32.234Z,11.47
2024-03-03T20:44:01.490Z,11.45
2024-03-03T20:46:32.392Z,11.43
2024-03-03T20:49:05.105Z,11.41
2024-03-03T20:51:36.347Z,11.38
2024-03-03T20:54:07.732Z,11.39
2024-03-03T20:56:38.689Z,11.37
2024-03-03T20:59:08.221Z,11.33
2024-03-03T21:01:39.238Z,11.30
2024-03-03T21:04:12.165Z,11.28
2024-03-03T21:06:43.121Z,11.27
2024-03-03T21:09:12.499Z,11.24
2024-03-03T21:11:43.477Z,11.19
2024-03-03T21:14:12.875Z,11.13
2024-03-03T21:16:43.863Z,11.06
2024-03-03T21:19:13.354Z,11.01
2024-03-03T21:21:45.527Z,10.96
2024-03-03T21:24:16.481Z,10.91
2024-03-03T21:26:46.468Z,10.83
2024-03-03T21:29:17.416Z,10.75
2024-03-03T21:31:52.452Z,10.68
2024-03-03T21:34:23.616Z,10.63
2024-03-03T21:36:54.609Z,10.57
2024-03-03T21:39:46.155Z,10.51
2024-03-03T21:42:15.392Z,10.47
2024-03-03T21:44:46.445Z,10.37
2024-03-03T21:47:19.521Z,10.34
2024-03-03T21:49:50.658Z,10.31
2024-03-03T21:52:21.814Z,10.29
2024-03-03T21:55:20.049Z,10.29
2024-03-03T21:57:52.728Z,10.31
2024-03-03T22:00:25.802Z,10.30
2024-03-03T22:02:57.023Z,10.30
2024-03-03T22:05:28.188Z,10.33
2024-03-03T22:08:04.125Z,10.35
2024-03-03T22:10:37.358Z,10.38
2024-03-03T22:13:08.610Z,10.39
2024-03-03T22:15:39.801Z,10.38
2024-03-03T22:18:10.753Z,10.36
2024-03-03T22:20:40.007Z,10.36
2024-03-03T22:23:11.086Z,10.27
2024-03-03T22:25:40.369Z,10.21
2024-03-03T22:28:12.143Z,10.18
2024-03-03T22:30:43.111Z,10.16
2024-03-03T22:33:14.232Z,10.12
2024-03-03T22:35:45.669Z,10.11
2024-03-03T22:38:16.755Z,10.04
2024-03-03T22:40:46.197Z,10.02
2024-03-03T22:43:17.146Z,10.00
2024-03-03T22:45:48.524Z,9.98
2024-03-03T22:48:19.747Z,9.91
2024-03-03T22:50:50.741Z,9.88
2024-03-03T22:53:21.913Z,9.90
2024-03-03T22:55:52.905Z,9.88
2024-03-03T22:58:22.187Z,9.82
2024-03-03T23:02:59.115Z,9.84
2024-03-03T23:05:30.509Z,9.87
2024-03-03T23:08:01.657Z,9.88
2024-03-03T23:11:16.311Z,9.86
2024-03-03T23:13:46.814Z,9.86
2024-03-03T23:16:19.170Z,9.89
2024-03-03T23:18:52.664Z,9.86
2024-03-03T23:21:21.886Z,9.82
2024-03-03T23:23:52.955Z,9.76
2024-03-03T23:26:22.281Z,9.76
2024-03-03T23:28:53.366Z,9.74
2024-03-03T23:31:22.740Z,9.74
2024-03-03T23:33:53.599Z,9.66
2024-03-03T23:36:24.544Z,9.60
2024-03-03T23:38:53.913Z,9.53
2024-03-03T23:41:24.946Z,9.46
2024-03-03T23:43:54.169Z,9.41
2024-03-03T23:46:25.127Z,9.41
2024-03-03T23:48:54.412Z,9.38
2024-03-03T23:51:25.365Z,9.34
2024-03-03T23:53:56.458Z,9.30
2024-03-03T23:56:25.771Z,9.26
2024-03-03T23:58:56.610Z,9.23
